Main page
METAR-TAF:

METAR-TAF

Airports :

General José Antonio Anzoátegui International Airport

Barcelona, Venezuela

latitude: 10-07N, longitude: 064-41W, elevation: 7 m

Current weather observation

The report was made 31 minutes ago, at 22:03 UTC
Temperature
Pressure

METAR: SVBC 202203Z AUTO NIL

Time: 18:34 (22:34 UTC)

Forecast

The report was made 6 hours and 34 minutes ago, at 16:00 UTC
Forecast valid from 20 at 18 UTC to 21 at 18 UTC
Wind 6 kt from the East/Northeast
Visibility 10 km or more
Scattered clouds at a height of 1000 ft
Temporary
from 20 at 19 UTC to 20 at 22 UTC
Wind 10 kt from the East/Northeast
Visibility: 9000 m
Scattered clouds at a height of 1000 ft
Scattered clouds at a height of 8000 ft
drizzle,

TAF: SVBC 201600Z 2018/2118 06006KT 9999 SCT010 TX36/2019Z TN23/2107Z TEMPO 2019/2022 06010KT 9000 DZ SCT010 SCT080

Weather observations and forecasts of more than 4000 airports (METAR and TAF reports).

The available stations are represented by yellow and red dots on the map.

Hover mouse over dot to see the name of the station.

Then click to see weather observations and forecasts.

To change the map : click on the green buttons with a black cross to zoom in, on the green button with a dash to zoom out, or on the green arrows for adjacent maps.


METAR-TAF: